Airfield :
LOGIN :

Register | Disclaimer

   EN    FR    IT 

 










Legend :    VFR   Marginal VFR   IFR   Intensive IFR   Very Intensive IFR
Visi :
Ceiling :
>= 8 km
>= 3000ft
5 to 8 km
1000 to 3000 ft
1500m to 5 km
500 to 1000 ft
800 to 1500m
200 to 500 ft
< 800m
< 200 ft
Symbols :   Thunderstorms  Fog  Heavy snow  Heavy precipitations  Wind > 20 kt
SIGMETs :     Misc.  Thunderstorms  Icing  Turbulence  Mountain Waves  Volcanic Ashes







- Airport Elevation : 288 ft
- IATA code : BZZ


EGVN - RAF Brize Norton

CURRENT METAR :
  • 181750Z 31002KT 5000 BR FEW003 01/01 Q1032 WHT BECMG 0600 FG BKN000 RED

EXPIRED METARs :
  • 181747Z 31003KT 5000 BR FEW001 01/01 Q1032 WHT BECMG 0600 FG BKN000 RED
  • 181729Z 33003KT 1200 BR SCT001 02/01 Q1031 RED BECMG 0600 FG RED
  • 181650Z 33002KT 4000 BR SCT250 03/02 Q1031 NOSIG
  • 181550Z 30002KT 9999 FEW015 SCT300 04/03 Q1031 BLU BECMG 4000 BR GRN

TAF TAF EGVN
Valid from the 18 at 18:00 until the 19 at 18:00 UTC


181647Z 1818/1918 34005KT 5000 BR FEW003
PROB40 1818/1821 0600 FG BKN000
BECMG 1821/1824 0200 FG VV///
PROB40
TEMPO 1900/1909 FZFG
BECMG 1911/1914 5000 BR BKN008
PROB30 1916/1918 2000 BR BKN002
No reported NOTAMs for that airfield.



MET'MAP, your aeronautical weather chart ! - Copyright ORBIFLY December 2007 - Disclaimer

ORBIFLY MET'MAP TEAM :

Programming & Development : Alexandra Zaïnal
Concept & Development : Baudouin d'Aumeries
Co-Development & Prog : Marc-Olivier Méhu
Technical & hardware support : Manuel Goepfert

Contact : metmap@orbifly.com




SOURCES & CREDITS :

   NOAA